sensor_id;sensor_type;location;lat;lon;timestamp;temperature;humidity
43015;DHT22;28637;50.554;7.032;2023-05-10T00:01:33;12.60;99.90
43015;DHT22;28637;50.554;7.032;2023-05-10T00:06:33;12.60;99.90
43015;DHT22;28637;50.554;7.032;2023-05-10T00:11:34;12.60;99.90
43015;DHT22;28637;50.554;7.032;2023-05-10T00:16:35;12.50;99.90
43015;DHT22;28637;50.554;7.032;2023-05-10T00:21:35;12.50;99.90
43015;DHT22;28637;50.554;7.032;2023-05-10T00:26:36;12.60;99.90
43015;DHT22;28637;50.554;7.032;2023-05-10T00:31:37;12.70;99.90
43015;DHT22;28637;50.554;7.032;2023-05-10T00:36:37;12.60;99.90
43015;DHT22;28637;50.554;7.032;2023-05-10T00:41:38;12.70;99.90
43015;DHT22;28637;50.554;7.032;2023-05-10T00:46:39;12.60;99.90
43015;DHT22;28637;50.554;7.032;2023-05-10T00:51:40;12.60;99.90
43015;DHT22;28637;50.554;7.032;2023-05-10T00:56:43;12.50;99.90
43015;DHT22;28637;50.554;7.032;2023-05-10T01:01:48;12.50;99.90
43015;DHT22;28637;50.554;7.032;2023-05-10T01:06:49;12.50;99.90
43015;DHT22;28637;50.554;7.032;2023-05-10T01:11:50;12.40;99.90
43015;DHT22;28637;50.554;7.032;2023-05-10T01:16:51;12.40;99.90
43015;DHT22;28637;50.554;7.032;2023-05-10T01:37:39;12.70;99.90
43015;DHT22;28637;50.554;7.032;2023-05-10T01:42:53;12.90;99.90
43015;DHT22;28637;50.554;7.032;2023-05-10T01:48:10;13.10;99.90
43015;DHT22;28637;50.554;7.032;2023-05-10T01:53:12;13.20;99.90
43015;DHT22;28637;50.554;7.032;2023-05-10T01:58:17;13.30;99.90
43015;DHT22;28637;50.554;7.032;2023-05-10T02:03:22;13.40;99.90
43015;DHT22;28637;50.554;7.032;2023-05-10T02:08:24;13.40;99.90
43015;DHT22;28637;50.554;7.032;2023-05-10T02:13:25;13.30;99.90
43015;DHT22;28637;50.554;7.032;2023-05-10T02:18:27;13.30;99.90
43015;DHT22;28637;50.554;7.032;2023-05-10T02:23:29;13.30;99.90
43015;DHT22;28637;50.554;7.032;2023-05-10T02:28:29;13.20;99.90
43015;DHT22;28637;50.554;7.032;2023-05-10T02:33:31;12.90;99.90
43015;DHT22;28637;50.554;7.032;2023-05-10T02:38:33;12.70;99.90
43015;DHT22;28637;50.554;7.032;2023-05-10T02:43:35;12.70;99.90
43015;DHT22;28637;50.554;7.032;2023-05-10T02:48:37;12.80;99.90
43015;DHT22;28637;50.554;7.032;2023-05-10T02:53:41;12.80;99.90
43015;DHT22;28637;50.554;7.032;2023-05-10T02:58:44;12.80;99.90
43015;DHT22;28637;50.554;7.032;2023-05-10T03:03:44;12.80;99.90
43015;DHT22;28637;50.554;7.032;2023-05-10T03:08:45;12.70;99.90
43015;DHT22;28637;50.554;7.032;2023-05-10T03:13:56;12.70;99.90
43015;DHT22;28637;50.554;7.032;2023-05-10T03:19:15;12.60;99.90
43015;DHT22;28637;50.554;7.032;2023-05-10T03:24:20;12.60;99.90
43015;DHT22;28637;50.554;7.032;2023-05-10T03:29:22;12.70;99.90
43015;DHT22;28637;50.554;7.032;2023-05-10T03:34:23;12.60;99.90
43015;DHT22;28637;50.554;7.032;2023-05-10T03:39:24;12.70;99.90
43015;DHT22;28637;50.554;7.032;2023-05-10T03:44:25;12.50;99.90
43015;DHT22;28637;50.554;7.032;2023-05-10T03:49:25;12.50;99.90
43015;DHT22;28637;50.554;7.032;2023-05-10T03:54:26;12.50;99.90
43015;DHT22;28637;50.554;7.032;2023-05-10T03:59:27;12.50;99.90
43015;DHT22;28637;50.554;7.032;2023-05-10T04:04:27;12.50;99.90
43015;DHT22;28637;50.554;7.032;2023-05-10T04:09:28;12.40;99.90
43015;DHT22;28637;50.554;7.032;2023-05-10T04:14:28;12.40;99.90
43015;DHT22;28637;50.554;7.032;2023-05-10T04:19:30;12.40;99.90
43015;DHT22;28637;50.554;7.032;2023-05-10T04:24:31;12.50;99.90
43015;DHT22;28637;50.554;7.032;2023-05-10T04:29:32;12.50;99.90
43015;DHT22;28637;50.554;7.032;2023-05-10T04:34:32;12.50;99.90
43015;DHT22;28637;50.554;7.032;2023-05-10T04:39:34;12.70;99.90
43015;DHT22;28637;50.554;7.032;2023-05-10T04:44:35;12.80;99.90
43015;DHT22;28637;50.554;7.032;2023-05-10T04:49:36;12.90;99.90
43015;DHT22;28637;50.554;7.032;2023-05-10T04:54:37;12.80;99.90
43015;DHT22;28637;50.554;7.032;2023-05-10T04:59:38;12.80;99.90
43015;DHT22;28637;50.554;7.032;2023-05-10T05:04:38;12.90;99.90
43015;DHT22;28637;50.554;7.032;2023-05-10T05:09:39;12.90;99.90
43015;DHT22;28637;50.554;7.032;2023-05-10T05:14:40;12.90;99.90
43015;DHT22;28637;50.554;7.032;2023-05-10T05:19:41;12.90;99.90
43015;DHT22;28637;50.554;7.032;2023-05-10T05:24:42;12.90;99.90
43015;DHT22;28637;50.554;7.032;2023-05-10T05:29:42;13.10;99.90
43015;DHT22;28637;50.554;7.032;2023-05-10T05:34:44;13.00;99.90
43015;DHT22;28637;50.554;7.032;2023-05-10T05:39:45;13.10;99.90
43015;DHT22;28637;50.554;7.032;2023-05-10T05:44:46;13.20;99.90
43015;DHT22;28637;50.554;7.032;2023-05-10T05:49:46;13.30;99.90
43015;DHT22;28637;50.554;7.032;2023-05-10T05:54:47;13.20;99.90
43015;DHT22;28637;50.554;7.032;2023-05-10T05:59:48;13.20;99.90
43015;DHT22;28637;50.554;7.032;2023-05-10T06:04:48;13.30;99.90
43015;DHT22;28637;50.554;7.032;2023-05-10T06:09:49;13.30;99.90
43015;DHT22;28637;50.554;7.032;2023-05-10T06:14:49;13.50;99.90
43015;DHT22;28637;50.554;7.032;2023-05-10T06:19:50;13.60;99.90
43015;DHT22;28637;50.554;7.032;2023-05-10T06:24:51;13.60;99.90
43015;DHT22;28637;50.554;7.032;2023-05-10T06:29:51;13.60;99.90
43015;DHT22;28637;50.554;7.032;2023-05-10T06:34:52;13.60;99.90
43015;DHT22;28637;50.554;7.032;2023-05-10T06:39:52;13.70;99.90
43015;DHT22;28637;50.554;7.032;2023-05-10T06:44:53;13.80;99.90
43015;DHT22;28637;50.554;7.032;2023-05-10T06:49:54;14.10;99.90
43015;DHT22;28637;50.554;7.032;2023-05-10T06:54:55;14.10;99.90
43015;DHT22;28637;50.554;7.032;2023-05-10T06:59:55;13.90;99.90
43015;DHT22;28637;50.554;7.032;2023-05-10T07:04:56;13.90;99.90
43015;DHT22;28637;50.554;7.032;2023-05-10T07:09:57;14.10;99.90
43015;DHT22;28637;50.554;7.032;2023-05-10T07:14:58;14.20;99.90
43015;DHT22;28637;50.554;7.032;2023-05-10T07:19:59;14.30;99.90
43015;DHT22;28637;50.554;7.032;2023-05-10T07:25:00;14.40;99.90
43015;DHT22;28637;50.554;7.032;2023-05-10T07:30:01;14.50;99.90
43015;DHT22;28637;50.554;7.032;2023-05-10T07:35:01;14.40;99.90
43015;DHT22;28637;50.554;7.032;2023-05-10T07:40:02;14.30;99.90
43015;DHT22;28637;50.554;7.032;2023-05-10T07:45:04;14.10;99.90
43015;DHT22;28637;50.554;7.032;2023-05-10T07:50:05;14.20;99.90
43015;DHT22;28637;50.554;7.032;2023-05-10T07:55:07;14.10;99.90
43015;DHT22;28637;50.554;7.032;2023-05-10T08:00:08;14.20;99.90
43015;DHT22;28637;50.554;7.032;2023-05-10T08:05:09;14.20;99.90
43015;DHT22;28637;50.554;7.032;2023-05-10T08:10:10;14.30;99.90
43015;DHT22;28637;50.554;7.032;2023-05-10T08:15:11;14.30;99.90
43015;DHT22;28637;50.554;7.032;2023-05-10T08:20:12;14.30;99.90
43015;DHT22;28637;50.554;7.032;2023-05-10T08:25:13;14.30;99.90
43015;DHT22;28637;50.554;7.032;2023-05-10T08:30:13;14.30;99.90
43015;DHT22;28637;50.554;7.032;2023-05-10T08:35:15;14.30;99.90
43015;DHT22;28637;50.554;7.032;2023-05-10T08:40:16;14.30;99.90
43015;DHT22;28637;50.554;7.032;2023-05-10T08:45:20;14.20;99.90
43015;DHT22;28637;50.554;7.032;2023-05-10T08:50:24;14.20;99.90
43015;DHT22;28637;50.554;7.032;2023-05-10T08:55:25;14.20;99.90
43015;DHT22;28637;50.554;7.032;2023-05-10T09:00:27;14.10;99.90
43015;DHT22;28637;50.554;7.032;2023-05-10T09:05:28;14.10;99.90
43015;DHT22;28637;50.554;7.032;2023-05-10T09:10:29;14.10;99.90
43015;DHT22;28637;50.554;7.032;2023-05-10T09:15:30;14.00;99.90
43015;DHT22;28637;50.554;7.032;2023-05-10T09:20:31;14.00;99.90
43015;DHT22;28637;50.554;7.032;2023-05-10T09:25:32;14.00;99.90
43015;DHT22;28637;50.554;7.032;2023-05-10T09:30:35;13.80;99.90
43015;DHT22;28637;50.554;7.032;2023-05-10T09:35:36;13.80;99.90
43015;DHT22;28637;50.554;7.032;2023-05-10T09:40:37;14.00;99.90
43015;DHT22;28637;50.554;7.032;2023-05-10T09:45:38;14.30;99.90
43015;DHT22;28637;50.554;7.032;2023-05-10T09:50:38;14.70;99.90
43015;DHT22;28637;50.554;7.032;2023-05-10T09:55:41;15.00;99.90
43015;DHT22;28637;50.554;7.032;2023-05-10T10:00:43;15.30;99.90
43015;DHT22;28637;50.554;7.032;2023-05-10T10:05:45;15.40;99.90
43015;DHT22;28637;50.554;7.032;2023-05-10T10:10:47;15.60;99.90
43015;DHT22;28637;50.554;7.032;2023-05-10T10:15:48;15.60;99.90
43015;DHT22;28637;50.554;7.032;2023-05-10T10:20:52;15.50;99.90
43015;DHT22;28637;50.554;7.032;2023-05-10T10:25:54;15.50;99.90
43015;DHT22;28637;50.554;7.032;2023-05-10T10:30:56;15.30;99.90
43015;DHT22;28637;50.554;7.032;2023-05-10T10:36:02;15.30;99.90
43015;DHT22;28637;50.554;7.032;2023-05-10T10:41:12;15.40;99.90
43015;DHT22;28637;50.554;7.032;2023-05-10T10:46:27;15.60;99.90
43015;DHT22;28637;50.554;7.032;2023-05-10T10:51:28;15.70;99.90
43015;DHT22;28637;50.554;7.032;2023-05-10T10:56:29;15.70;99.90
43015;DHT22;28637;50.554;7.032;2023-05-10T11:01:34;15.80;99.90
43015;DHT22;28637;50.554;7.032;2023-05-10T11:06:37;15.90;99.90
43015;DHT22;28637;50.554;7.032;2023-05-10T11:11:54;15.90;99.90
43015;DHT22;28637;50.554;7.032;2023-05-10T11:16:58;15.80;99.90
43015;DHT22;28637;50.554;7.032;2023-05-10T11:27:05;15.90;99.90
43015;DHT22;28637;50.554;7.032;2023-05-10T11:32:06;16.10;99.90
43015;DHT22;28637;50.554;7.032;2023-05-10T11:37:08;16.40;99.90
43015;DHT22;28637;50.554;7.032;2023-05-10T11:42:09;16.40;99.90
43015;DHT22;28637;50.554;7.032;2023-05-10T11:47:12;16.50;99.90
43015;DHT22;28637;50.554;7.032;2023-05-10T11:52:12;16.50;99.90
43015;DHT22;28637;50.554;7.032;2023-05-10T11:57:13;16.50;99.90
43015;DHT22;28637;50.554;7.032;2023-05-10T12:02:14;16.50;99.90
43015;DHT22;28637;50.554;7.032;2023-05-10T12:07:15;16.40;99.90
43015;DHT22;28637;50.554;7.032;2023-05-10T12:12:16;16.50;99.90
43015;DHT22;28637;50.554;7.032;2023-05-10T12:17:17;16.40;99.90
43015;DHT22;28637;50.554;7.032;2023-05-10T12:22:20;16.40;99.90
43015;DHT22;28637;50.554;7.032;2023-05-10T12:27:21;16.50;99.90
43015;DHT22;28637;50.554;7.032;2023-05-10T12:32:37;16.70;99.90
43015;DHT22;28637;50.554;7.032;2023-05-10T12:37:38;16.70;99.90
43015;DHT22;28637;50.554;7.032;2023-05-10T12:42:39;16.80;99.90
43015;DHT22;28637;50.554;7.032;2023-05-10T12:47:40;17.30;99.90
43015;DHT22;28637;50.554;7.032;2023-05-10T12:52:41;17.60;99.90
43015;DHT22;28637;50.554;7.032;2023-05-10T12:57:41;17.50;99.90
43015;DHT22;28637;50.554;7.032;2023-05-10T13:02:42;17.30;99.90
43015;DHT22;28637;50.554;7.032;2023-05-10T13:07:42;17.10;99.90
43015;DHT22;28637;50.554;7.032;2023-05-10T13:12:44;16.80;99.90
43015;DHT22;28637;50.554;7.032;2023-05-10T13:17:44;16.70;99.90
43015;DHT22;28637;50.554;7.032;2023-05-10T13:22:45;16.50;99.90
43015;DHT22;28637;50.554;7.032;2023-05-10T13:27:46;16.30;99.90
43015;DHT22;28637;50.554;7.032;2023-05-10T13:32:48;15.70;99.90
43015;DHT22;28637;50.554;7.032;2023-05-10T13:37:48;15.00;99.90
43015;DHT22;28637;50.554;7.032;2023-05-10T13:42:49;15.00;99.90
43015;DHT22;28637;50.554;7.032;2023-05-10T13:47:50;15.00;99.90
43015;DHT22;28637;50.554;7.032;2023-05-10T13:52:51;15.00;99.90
43015;DHT22;28637;50.554;7.032;2023-05-10T13:57:51;15.20;99.90
43015;DHT22;28637;50.554;7.032;2023-05-10T14:02:52;15.50;99.90
43015;DHT22;28637;50.554;7.032;2023-05-10T14:07:53;15.80;99.90
43015;DHT22;28637;50.554;7.032;2023-05-10T14:12:54;16.10;99.90
43015;DHT22;28637;50.554;7.032;2023-05-10T14:17:54;16.10;99.90
43015;DHT22;28637;50.554;7.032;2023-05-10T14:22:55;16.00;99.90
43015;DHT22;28637;50.554;7.032;2023-05-10T14:27:56;15.90;99.90
43015;DHT22;28637;50.554;7.032;2023-05-10T14:32:57;15.80;99.90
43015;DHT22;28637;50.554;7.032;2023-05-10T14:37:58;15.20;99.90
43015;DHT22;28637;50.554;7.032;2023-05-10T14:42:59;14.80;99.90
43015;DHT22;28637;50.554;7.032;2023-05-10T14:48:00;14.80;99.90
43015;DHT22;28637;50.554;7.032;2023-05-10T14:58:11;15.20;99.90
43015;DHT22;28637;50.554;7.032;2023-05-10T15:03:12;15.30;99.90
43015;DHT22;28637;50.554;7.032;2023-05-10T15:08:12;15.40;99.90
43015;DHT22;28637;50.554;7.032;2023-05-10T15:13:13;15.40;99.90
43015;DHT22;28637;50.554;7.032;2023-05-10T15:18:14;15.40;99.90
43015;DHT22;28637;50.554;7.032;2023-05-10T15:23:15;15.50;99.90
43015;DHT22;28637;50.554;7.032;2023-05-10T15:28:15;15.50;99.90
43015;DHT22;28637;50.554;7.032;2023-05-10T15:33:16;15.60;99.90
43015;DHT22;28637;50.554;7.032;2023-05-10T15:38:16;15.70;99.90
43015;DHT22;28637;50.554;7.032;2023-05-10T15:43:17;15.70;99.90
43015;DHT22;28637;50.554;7.032;2023-05-10T15:48:18;15.60;99.90
43015;DHT22;28637;50.554;7.032;2023-05-10T15:58:29;15.10;99.90
43015;DHT22;28637;50.554;7.032;2023-05-10T16:03:29;15.00;99.90
43015;DHT22;28637;50.554;7.032;2023-05-10T16:08:31;15.00;99.90
43015;DHT22;28637;50.554;7.032;2023-05-10T16:13:33;14.90;99.90
43015;DHT22;28637;50.554;7.032;2023-05-10T16:18:34;15.00;99.90
43015;DHT22;28637;50.554;7.032;2023-05-10T16:23:35;15.00;99.90
43015;DHT22;28637;50.554;7.032;2023-05-10T16:28:36;15.20;99.90
43015;DHT22;28637;50.554;7.032;2023-05-10T16:33:37;15.20;99.90
43015;DHT22;28637;50.554;7.032;2023-05-10T16:38:37;15.30;99.90
43015;DHT22;28637;50.554;7.032;2023-05-10T16:43:38;15.60;99.90
43015;DHT22;28637;50.554;7.032;2023-05-10T16:48:39;15.80;99.90
43015;DHT22;28637;50.554;7.032;2023-05-10T16:53:39;15.90;99.90
43015;DHT22;28637;50.554;7.032;2023-05-10T16:58:40;16.00;99.90
43015;DHT22;28637;50.554;7.032;2023-05-10T17:03:41;15.80;99.90
43015;DHT22;28637;50.554;7.032;2023-05-10T17:08:41;15.90;99.90
43015;DHT22;28637;50.554;7.032;2023-05-10T17:13:42;15.80;99.90
43015;DHT22;28637;50.554;7.032;2023-05-10T17:18:43;15.70;99.90
43015;DHT22;28637;50.554;7.032;2023-05-10T17:23:45;15.70;99.90
43015;DHT22;28637;50.554;7.032;2023-05-10T17:28:45;15.60;99.90
43015;DHT22;28637;50.554;7.032;2023-05-10T17:33:46;15.50;99.90
43015;DHT22;28637;50.554;7.032;2023-05-10T17:38:46;15.30;99.90
43015;DHT22;28637;50.554;7.032;2023-05-10T17:43:47;15.30;99.90
43015;DHT22;28637;50.554;7.032;2023-05-10T17:48:48;15.30;99.90
43015;DHT22;28637;50.554;7.032;2023-05-10T17:53:48;15.40;99.90
43015;DHT22;28637;50.554;7.032;2023-05-10T17:58:49;15.40;99.90
43015;DHT22;28637;50.554;7.032;2023-05-10T18:03:50;15.60;99.90
43015;DHT22;28637;50.554;7.032;2023-05-10T18:08:52;15.50;99.90
43015;DHT22;28637;50.554;7.032;2023-05-10T18:13:52;15.30;99.90
43015;DHT22;28637;50.554;7.032;2023-05-10T18:18:53;15.10;99.90
43015;DHT22;28637;50.554;7.032;2023-05-10T18:23:54;15.00;99.90
43015;DHT22;28637;50.554;7.032;2023-05-10T18:28:54;14.90;99.90
43015;DHT22;28637;50.554;7.032;2023-05-10T18:33:55;14.90;99.90
43015;DHT22;28637;50.554;7.032;2023-05-10T18:38:56;14.90;99.90
43015;DHT22;28637;50.554;7.032;2023-05-10T18:43:57;14.90;99.90
43015;DHT22;28637;50.554;7.032;2023-05-10T18:48:57;14.80;99.90
43015;DHT22;28637;50.554;7.032;2023-05-10T18:53:58;14.70;99.90
43015;DHT22;28637;50.554;7.032;2023-05-10T18:58:58;14.60;99.90
43015;DHT22;28637;50.554;7.032;2023-05-10T19:03:59;14.30;99.90
43015;DHT22;28637;50.554;7.032;2023-05-10T19:09:00;14.00;99.90
43015;DHT22;28637;50.554;7.032;2023-05-10T19:14:01;13.80;99.90
43015;DHT22;28637;50.554;7.032;2023-05-10T19:19:02;13.70;99.90
43015;DHT22;28637;50.554;7.032;2023-05-10T19:24:02;13.50;99.90
43015;DHT22;28637;50.554;7.032;2023-05-10T19:29:03;13.30;99.90
43015;DHT22;28637;50.554;7.032;2023-05-10T19:34:04;13.20;99.90
43015;DHT22;28637;50.554;7.032;2023-05-10T19:39:04;13.10;99.90
43015;DHT22;28637;50.554;7.032;2023-05-10T19:44:05;13.10;99.90
43015;DHT22;28637;50.554;7.032;2023-05-10T19:49:05;13.00;99.90
43015;DHT22;28637;50.554;7.032;2023-05-10T19:54:07;12.90;99.90
43015;DHT22;28637;50.554;7.032;2023-05-10T19:59:08;12.80;99.90
43015;DHT22;28637;50.554;7.032;2023-05-10T20:04:08;12.80;99.90
43015;DHT22;28637;50.554;7.032;2023-05-10T20:09:09;12.80;99.90
43015;DHT22;28637;50.554;7.032;2023-05-10T20:14:10;12.80;99.90
43015;DHT22;28637;50.554;7.032;2023-05-10T20:19:10;12.90;99.90
43015;DHT22;28637;50.554;7.032;2023-05-10T20:24:11;12.90;99.90
43015;DHT22;28637;50.554;7.032;2023-05-10T20:29:12;12.80;99.90
43015;DHT22;28637;50.554;7.032;2023-05-10T20:34:12;12.80;99.90
43015;DHT22;28637;50.554;7.032;2023-05-10T20:39:13;12.80;99.90
43015;DHT22;28637;50.554;7.032;2023-05-10T20:44:14;12.80;99.90
43015;DHT22;28637;50.554;7.032;2023-05-10T20:49:15;12.80;99.90
43015;DHT22;28637;50.554;7.032;2023-05-10T20:54:16;12.80;99.90
43015;DHT22;28637;50.554;7.032;2023-05-10T20:59:17;12.80;99.90
43015;DHT22;28637;50.554;7.032;2023-05-10T21:04:18;12.70;99.90
43015;DHT22;28637;50.554;7.032;2023-05-10T21:09:19;12.60;99.90
43015;DHT22;28637;50.554;7.032;2023-05-10T21:14:19;12.50;99.90
43015;DHT22;28637;50.554;7.032;2023-05-10T21:19:20;12.50;99.90
43015;DHT22;28637;50.554;7.032;2023-05-10T21:24:21;12.50;99.90
43015;DHT22;28637;50.554;7.032;2023-05-10T21:29:22;12.50;99.90
43015;DHT22;28637;50.554;7.032;2023-05-10T21:34:23;12.50;99.90
43015;DHT22;28637;50.554;7.032;2023-05-10T21:39:23;12.40;99.90
43015;DHT22;28637;50.554;7.032;2023-05-10T21:44:24;12.40;99.90
43015;DHT22;28637;50.554;7.032;2023-05-10T21:49:25;12.20;99.90
43015;DHT22;28637;50.554;7.032;2023-05-10T21:54:26;12.30;99.90
43015;DHT22;28637;50.554;7.032;2023-05-10T21:59:26;12.20;99.90
43015;DHT22;28637;50.554;7.032;2023-05-10T22:04:27;11.90;99.90
43015;DHT22;28637;50.554;7.032;2023-05-10T22:09:27;11.70;99.90
43015;DHT22;28637;50.554;7.032;2023-05-10T22:14:29;11.60;99.90
43015;DHT22;28637;50.554;7.032;2023-05-10T22:19:29;11.60;99.90
43015;DHT22;28637;50.554;7.032;2023-05-10T22:24:30;11.60;99.90
43015;DHT22;28637;50.554;7.032;2023-05-10T22:29:31;11.40;99.90
43015;DHT22;28637;50.554;7.032;2023-05-10T22:34:32;11.30;99.90
43015;DHT22;28637;50.554;7.032;2023-05-10T22:39:32;11.40;99.90
43015;DHT22;28637;50.554;7.032;2023-05-10T22:44:33;11.50;99.90
43015;DHT22;28637;50.554;7.032;2023-05-10T22:49:34;11.40;99.90
43015;DHT22;28637;50.554;7.032;2023-05-10T22:54:35;11.20;99.90
43015;DHT22;28637;50.554;7.032;2023-05-10T22:59:35;11.00;99.90
43015;DHT22;28637;50.554;7.032;2023-05-10T23:04:36;10.70;99.90
43015;DHT22;28637;50.554;7.032;2023-05-10T23:09:36;10.70;99.90
43015;DHT22;28637;50.554;7.032;2023-05-10T23:14:37;10.60;99.90
43015;DHT22;28637;50.554;7.032;2023-05-10T23:19:38;10.70;99.90
43015;DHT22;28637;50.554;7.032;2023-05-10T23:24:38;10.80;99.90
43015;DHT22;28637;50.554;7.032;2023-05-10T23:29:40;11.00;99.90
43015;DHT22;28637;50.554;7.032;2023-05-10T23:34:40;11.10;99.90
43015;DHT22;28637;50.554;7.032;2023-05-10T23:39:41;11.30;99.90
43015;DHT22;28637;50.554;7.032;2023-05-10T23:44:42;11.40;99.90
43015;DHT22;28637;50.554;7.032;2023-05-10T23:49:42;11.40;99.90
43015;DHT22;28637;50.554;7.032;2023-05-10T23:54:43;11.50;99.90
43015;DHT22;28637;50.554;7.032;2023-05-10T23:59:44;11.50;99.90
